sensor_id;sensor_type;location;lat;lon;timestamp;P1;durP1;ratioP1;P2;durP2;ratioP2
67597;SDS011;62026;39.230;9.122;2023-04-24T00:00:56;9.15;;;2.40;;
67597;SDS011;62026;39.230;9.122;2023-04-24T00:03:24;10.85;;;2.65;;
67597;SDS011;62026;39.230;9.122;2023-04-24T00:05:53;8.63;;;2.60;;
67597;SDS011;62026;39.230;9.122;2023-04-24T00:08:20;9.18;;;2.88;;
67597;SDS011;62026;39.230;9.122;2023-04-24T00:10:47;11.45;;;2.92;;
67597;SDS011;62026;39.230;9.122;2023-04-24T00:13:13;11.65;;;2.53;;
67597;SDS011;62026;39.230;9.122;2023-04-24T00:15:39;11.57;;;2.70;;
67597;SDS011;62026;39.230;9.122;2023-04-24T00:18:05;9.90;;;3.10;;
67597;SDS011;62026;39.230;9.122;2023-04-24T00:20:31;12.85;;;2.60;;
67597;SDS011;62026;39.230;9.122;2023-04-24T00:22:58;8.25;;;2.53;;
67597;SDS011;62026;39.230;9.122;2023-04-24T00:25:24;6.05;;;2.35;;
67597;SDS011;62026;39.230;9.122;2023-04-24T00:27:50;8.18;;;2.63;;
67597;SDS011;62026;39.230;9.122;2023-04-24T00:30:16;9.10;;;3.13;;
67597;SDS011;62026;39.230;9.122;2023-04-24T00:32:42;8.80;;;2.38;;
67597;SDS011;62026;39.230;9.122;2023-04-24T00:35:08;10.40;;;2.40;;
67597;SDS011;62026;39.230;9.122;2023-04-24T00:37:35;10.05;;;2.67;;
67597;SDS011;62026;39.230;9.122;2023-04-24T00:40:01;8.63;;;2.45;;
67597;SDS011;62026;39.230;9.122;2023-04-24T00:42:28;8.48;;;2.28;;
67597;SDS011;62026;39.230;9.122;2023-04-24T00:44:54;10.93;;;2.50;;
67597;SDS011;62026;39.230;9.122;2023-04-24T00:47:22;9.93;;;2.90;;
67597;SDS011;62026;39.230;9.122;2023-04-24T00:49:50;9.25;;;2.83;;
67597;SDS011;62026;39.230;9.122;2023-04-24T00:52:17;7.95;;;2.20;;
67597;SDS011;62026;39.230;9.122;2023-04-24T00:54:44;11.88;;;2.13;;
67597;SDS011;62026;39.230;9.122;2023-04-24T00:57:10;13.07;;;2.25;;
67597;SDS011;62026;39.230;9.122;2023-04-24T00:59:38;11.48;;;2.70;;
67597;SDS011;62026;39.230;9.122;2023-04-24T01:02:06;7.07;;;1.95;;
67597;SDS011;62026;39.230;9.122;2023-04-24T01:04:34;8.18;;;2.45;;
67597;SDS011;62026;39.230;9.122;2023-04-24T01:07:01;10.02;;;2.50;;
67597;SDS011;62026;39.230;9.122;2023-04-24T01:09:27;11.45;;;2.80;;
67597;SDS011;62026;39.230;9.122;2023-04-24T01:11:56;11.00;;;2.75;;
67597;SDS011;62026;39.230;9.122;2023-04-24T01:14:23;12.90;;;2.80;;
67597;SDS011;62026;39.230;9.122;2023-04-24T01:16:49;9.13;;;2.40;;
67597;SDS011;62026;39.230;9.122;2023-04-24T01:19:15;12.60;;;2.70;;
67597;SDS011;62026;39.230;9.122;2023-04-24T01:21:44;11.63;;;2.83;;
67597;SDS011;62026;39.230;9.122;2023-04-24T01:24:12;11.63;;;3.10;;
67597;SDS011;62026;39.230;9.122;2023-04-24T01:26:38;8.32;;;2.55;;
67597;SDS011;62026;39.230;9.122;2023-04-24T01:29:04;9.35;;;2.65;;
67597;SDS011;62026;39.230;9.122;2023-04-24T01:31:31;8.07;;;2.55;;
67597;SDS011;62026;39.230;9.122;2023-04-24T01:33:58;11.02;;;2.63;;
67597;SDS011;62026;39.230;9.122;2023-04-24T01:36:25;8.55;;;2.30;;
67597;SDS011;62026;39.230;9.122;2023-04-24T01:38:55;8.80;;;2.50;;
67597;SDS011;62026;39.230;9.122;2023-04-24T01:41:21;11.55;;;3.03;;
67597;SDS011;62026;39.230;9.122;2023-04-24T01:43:47;11.23;;;2.70;;
67597;SDS011;62026;39.230;9.122;2023-04-24T01:46:14;10.95;;;2.63;;
67597;SDS011;62026;39.230;9.122;2023-04-24T01:48:41;7.07;;;2.50;;
67597;SDS011;62026;39.230;9.122;2023-04-24T01:51:07;9.70;;;2.47;;
67597;SDS011;62026;39.230;9.122;2023-04-24T01:53:33;12.02;;;2.70;;
67597;SDS011;62026;39.230;9.122;2023-04-24T01:55:59;14.32;;;2.75;;
67597;SDS011;62026;39.230;9.122;2023-04-24T01:58:26;10.27;;;2.67;;
67597;SDS011;62026;39.230;9.122;2023-04-24T02:00:52;10.65;;;2.45;;
67597;SDS011;62026;39.230;9.122;2023-04-24T02:03:21;8.23;;;2.17;;
67597;SDS011;62026;39.230;9.122;2023-04-24T02:05:47;8.25;;;2.47;;
67597;SDS011;62026;39.230;9.122;2023-04-24T02:08:14;5.72;;;2.35;;
67597;SDS011;62026;39.230;9.122;2023-04-24T02:10:40;11.00;;;2.50;;
67597;SDS011;62026;39.230;9.122;2023-04-24T02:13:06;8.23;;;2.53;;
67597;SDS011;62026;39.230;9.122;2023-04-24T02:15:32;8.13;;;2.55;;
67597;SDS011;62026;39.230;9.122;2023-04-24T02:17:58;9.93;;;2.55;;
67597;SDS011;62026;39.230;9.122;2023-04-24T02:20:23;8.23;;;2.85;;
67597;SDS011;62026;39.230;9.122;2023-04-24T02:22:50;11.50;;;3.08;;
67597;SDS011;62026;39.230;9.122;2023-04-24T02:25:17;12.25;;;2.83;;
67597;SDS011;62026;39.230;9.122;2023-04-24T02:27:43;9.38;;;2.97;;
67597;SDS011;62026;39.230;9.122;2023-04-24T02:30:09;9.27;;;2.70;;
67597;SDS011;62026;39.230;9.122;2023-04-24T02:32:35;10.77;;;3.15;;
67597;SDS011;62026;39.230;9.122;2023-04-24T02:35:01;11.25;;;2.75;;
67597;SDS011;62026;39.230;9.122;2023-04-24T02:37:28;7.43;;;2.20;;
67597;SDS011;62026;39.230;9.122;2023-04-24T02:39:54;9.75;;;2.72;;
67597;SDS011;62026;39.230;9.122;2023-04-24T02:42:20;11.23;;;2.67;;
67597;SDS011;62026;39.230;9.122;2023-04-24T02:44:45;8.25;;;2.60;;
67597;SDS011;62026;39.230;9.122;2023-04-24T02:47:11;7.20;;;2.10;;
67597;SDS011;62026;39.230;9.122;2023-04-24T02:49:37;10.90;;;2.70;;
67597;SDS011;62026;39.230;9.122;2023-04-24T02:52:04;11.35;;;2.65;;
67597;SDS011;62026;39.230;9.122;2023-04-24T02:54:30;8.07;;;2.50;;
67597;SDS011;62026;39.230;9.122;2023-04-24T02:56:56;14.07;;;2.75;;
67597;SDS011;62026;39.230;9.122;2023-04-24T02:59:22;8.38;;;2.45;;
67597;SDS011;62026;39.230;9.122;2023-04-24T03:01:48;7.82;;;2.58;;
67597;SDS011;62026;39.230;9.122;2023-04-24T03:04:14;9.38;;;2.67;;
67597;SDS011;62026;39.230;9.122;2023-04-24T03:06:40;9.48;;;2.60;;
67597;SDS011;62026;39.230;9.122;2023-04-24T03:09:06;9.90;;;2.70;;
67597;SDS011;62026;39.230;9.122;2023-04-24T03:11:32;8.82;;;2.90;;
67597;SDS011;62026;39.230;9.122;2023-04-24T03:13:59;5.13;;;2.40;;
67597;SDS011;62026;39.230;9.122;2023-04-24T03:16:25;9.23;;;2.72;;
67597;SDS011;62026;39.230;9.122;2023-04-24T03:18:54;14.50;;;2.95;;
67597;SDS011;62026;39.230;9.122;2023-04-24T03:21:20;8.32;;;2.20;;
67597;SDS011;62026;39.230;9.122;2023-04-24T03:23:47;8.45;;;2.42;;
67597;SDS011;62026;39.230;9.122;2023-04-24T03:26:14;6.55;;;2.13;;
67597;SDS011;62026;39.230;9.122;2023-04-24T03:28:50;11.85;;;2.90;;
67597;SDS011;62026;39.230;9.122;2023-04-24T03:31:16;12.85;;;2.40;;
67597;SDS011;62026;39.230;9.122;2023-04-24T03:33:44;12.50;;;2.55;;
67597;SDS011;62026;39.230;9.122;2023-04-24T03:36:10;13.82;;;2.60;;
67597;SDS011;62026;39.230;9.122;2023-04-24T03:38:39;8.50;;;2.63;;
67597;SDS011;62026;39.230;9.122;2023-04-24T03:41:26;7.60;;;2.70;;
67597;SDS011;62026;39.230;9.122;2023-04-24T03:44:11;8.10;;;2.75;;
67597;SDS011;62026;39.230;9.122;2023-04-24T03:46:37;11.90;;;2.42;;
67597;SDS011;62026;39.230;9.122;2023-04-24T03:49:03;7.68;;;2.70;;
67597;SDS011;62026;39.230;9.122;2023-04-24T03:51:34;4.85;;;2.00;;
67597;SDS011;62026;39.230;9.122;2023-04-24T03:54:09;7.38;;;2.45;;
67597;SDS011;62026;39.230;9.122;2023-04-24T03:56:37;10.50;;;2.42;;
67597;SDS011;62026;39.230;9.122;2023-04-24T03:59:04;7.88;;;2.15;;
67597;SDS011;62026;39.230;9.122;2023-04-24T04:01:30;6.00;;;2.15;;
67597;SDS011;62026;39.230;9.122;2023-04-24T04:04:05;8.93;;;2.60;;
67597;SDS011;62026;39.230;9.122;2023-04-24T04:06:32;8.15;;;2.40;;
67597;SDS011;62026;39.230;9.122;2023-04-24T04:08:59;12.25;;;2.92;;
67597;SDS011;62026;39.230;9.122;2023-04-24T04:11:25;8.73;;;2.40;;
67597;SDS011;62026;39.230;9.122;2023-04-24T04:13:51;9.15;;;2.50;;
67597;SDS011;62026;39.230;9.122;2023-04-24T04:16:20;9.32;;;2.30;;
67597;SDS011;62026;39.230;9.122;2023-04-24T04:18:48;10.93;;;2.50;;
67597;SDS011;62026;39.230;9.122;2023-04-24T04:21:14;7.93;;;2.13;;
67597;SDS011;62026;39.230;9.122;2023-04-24T04:23:40;7.55;;;2.60;;
67597;SDS011;62026;39.230;9.122;2023-04-24T04:26:14;11.95;;;2.65;;
67597;SDS011;62026;39.230;9.122;2023-04-24T04:29:09;10.32;;;2.97;;
67597;SDS011;62026;39.230;9.122;2023-04-24T04:31:40;11.40;;;2.53;;
67597;SDS011;62026;39.230;9.122;2023-04-24T04:34:10;9.30;;;3.08;;
67597;SDS011;62026;39.230;9.122;2023-04-24T04:36:37;16.92;;;2.60;;
67597;SDS011;62026;39.230;9.122;2023-04-24T04:39:20;12.48;;;3.13;;
67597;SDS011;62026;39.230;9.122;2023-04-24T04:41:57;10.70;;;2.60;;
67597;SDS011;62026;39.230;9.122;2023-04-24T04:44:28;12.77;;;2.65;;
67597;SDS011;62026;39.230;9.122;2023-04-24T04:46:56;12.23;;;2.80;;
67597;SDS011;62026;39.230;9.122;2023-04-24T04:49:26;10.25;;;2.58;;
67597;SDS011;62026;39.230;9.122;2023-04-24T04:51:54;12.32;;;2.92;;
67597;SDS011;62026;39.230;9.122;2023-04-24T04:54:22;11.80;;;3.05;;
67597;SDS011;62026;39.230;9.122;2023-04-24T04:56:52;8.77;;;2.55;;
67597;SDS011;62026;39.230;9.122;2023-04-24T04:59:18;5.18;;;2.47;;
67597;SDS011;62026;39.230;9.122;2023-04-24T05:01:46;8.32;;;2.72;;
67597;SDS011;62026;39.230;9.122;2023-04-24T05:04:13;9.75;;;2.97;;
67597;SDS011;62026;39.230;9.122;2023-04-24T05:06:40;10.07;;;2.67;;
67597;SDS011;62026;39.230;9.122;2023-04-24T05:09:06;9.90;;;2.60;;
67597;SDS011;62026;39.230;9.122;2023-04-24T05:11:58;8.25;;;2.47;;
67597;SDS011;62026;39.230;9.122;2023-04-24T05:14:25;8.07;;;2.30;;
67597;SDS011;62026;39.230;9.122;2023-04-24T05:16:52;12.77;;;2.50;;
67597;SDS011;62026;39.230;9.122;2023-04-24T05:19:20;10.88;;;2.78;;
67597;SDS011;62026;39.230;9.122;2023-04-24T05:21:46;10.27;;;2.30;;
67597;SDS011;62026;39.230;9.122;2023-04-24T05:24:12;6.25;;;2.40;;
67597;SDS011;62026;39.230;9.122;2023-04-24T05:26:43;15.73;;;2.55;;
67597;SDS011;62026;39.230;9.122;2023-04-24T05:29:11;7.05;;;2.60;;
67597;SDS011;62026;39.230;9.122;2023-04-24T05:31:37;9.00;;;3.22;;
67597;SDS011;62026;39.230;9.122;2023-04-24T05:34:04;7.85;;;2.28;;
67597;SDS011;62026;39.230;9.122;2023-04-24T05:36:31;6.93;;;2.00;;
67597;SDS011;62026;39.230;9.122;2023-04-24T05:38:57;10.15;;;2.38;;
67597;SDS011;62026;39.230;9.122;2023-04-24T05:41:23;8.10;;;2.47;;
67597;SDS011;62026;39.230;9.122;2023-04-24T05:43:49;11.27;;;2.50;;
67597;SDS011;62026;39.230;9.122;2023-04-24T05:46:16;12.73;;;2.60;;
67597;SDS011;62026;39.230;9.122;2023-04-24T05:48:42;10.10;;;2.50;;
67597;SDS011;62026;39.230;9.122;2023-04-24T05:51:09;9.13;;;2.58;;
67597;SDS011;62026;39.230;9.122;2023-04-24T05:53:35;10.40;;;2.35;;
67597;SDS011;62026;39.230;9.122;2023-04-24T05:56:01;12.60;;;2.60;;
67597;SDS011;62026;39.230;9.122;2023-04-24T05:58:27;9.63;;;2.47;;
67597;SDS011;62026;39.230;9.122;2023-04-24T06:00:53;12.73;;;3.25;;
67597;SDS011;62026;39.230;9.122;2023-04-24T06:03:20;9.25;;;2.65;;
67597;SDS011;62026;39.230;9.122;2023-04-24T06:05:47;7.43;;;2.42;;
67597;SDS011;62026;39.230;9.122;2023-04-24T06:08:16;15.10;;;2.45;;
67597;SDS011;62026;39.230;9.122;2023-04-24T06:10:43;8.90;;;2.50;;
67597;SDS011;62026;39.230;9.122;2023-04-24T06:13:10;8.57;;;2.67;;
67597;SDS011;62026;39.230;9.122;2023-04-24T06:15:41;6.90;;;2.08;;
67597;SDS011;62026;39.230;9.122;2023-04-24T06:18:15;9.05;;;2.33;;
67597;SDS011;62026;39.230;9.122;2023-04-24T06:20:42;8.05;;;2.22;;
67597;SDS011;62026;39.230;9.122;2023-04-24T06:23:08;6.15;;;2.20;;
67597;SDS011;62026;39.230;9.122;2023-04-24T06:25:34;12.70;;;2.20;;
67597;SDS011;62026;39.230;9.122;2023-04-24T06:28:01;9.10;;;2.55;;
67597;SDS011;62026;39.230;9.122;2023-04-24T06:30:29;7.80;;;2.20;;
67597;SDS011;62026;39.230;9.122;2023-04-24T06:32:55;9.60;;;2.67;;
67597;SDS011;62026;39.230;9.122;2023-04-24T06:35:21;10.23;;;1.90;;
67597;SDS011;62026;39.230;9.122;2023-04-24T06:37:47;11.38;;;2.17;;
67597;SDS011;62026;39.230;9.122;2023-04-24T06:40:13;8.90;;;2.35;;
67597;SDS011;62026;39.230;9.122;2023-04-24T06:42:40;9.52;;;2.00;;
67597;SDS011;62026;39.230;9.122;2023-04-24T06:45:07;6.05;;;1.80;;
67597;SDS011;62026;39.230;9.122;2023-04-24T06:47:34;9.10;;;2.00;;
67597;SDS011;62026;39.230;9.122;2023-04-24T06:49:59;8.35;;;2.20;;
67597;SDS011;62026;39.230;9.122;2023-04-24T06:52:25;10.00;;;2.72;;
67597;SDS011;62026;39.230;9.122;2023-04-24T06:54:51;6.53;;;2.38;;
67597;SDS011;62026;39.230;9.122;2023-04-24T06:57:18;12.80;;;2.70;;
67597;SDS011;62026;39.230;9.122;2023-04-24T06:59:44;9.40;;;1.98;;
67597;SDS011;62026;39.230;9.122;2023-04-24T07:02:10;10.73;;;2.65;;
67597;SDS011;62026;39.230;9.122;2023-04-24T07:04:36;8.23;;;2.05;;
67597;SDS011;62026;39.230;9.122;2023-04-24T07:07:02;9.82;;;2.08;;
67597;SDS011;62026;39.230;9.122;2023-04-24T07:09:29;7.97;;;2.20;;
67597;SDS011;62026;39.230;9.122;2023-04-24T07:11:55;6.90;;;1.73;;
67597;SDS011;62026;39.230;9.122;2023-04-24T07:14:22;7.40;;;2.00;;
67597;SDS011;62026;39.230;9.122;2023-04-24T07:16:48;10.43;;;2.25;;
67597;SDS011;62026;39.230;9.122;2023-04-24T07:19:14;16.15;;;2.50;;
67597;SDS011;62026;39.230;9.122;2023-04-24T07:21:40;7.10;;;1.95;;
67597;SDS011;62026;39.230;9.122;2023-04-24T07:24:07;7.78;;;1.95;;
67597;SDS011;62026;39.230;9.122;2023-04-24T07:26:35;11.82;;;2.58;;
67597;SDS011;62026;39.230;9.122;2023-04-24T07:29:04;12.10;;;2.85;;
67597;SDS011;62026;39.230;9.122;2023-04-24T07:31:30;10.73;;;2.08;;
67597;SDS011;62026;39.230;9.122;2023-04-24T07:33:56;9.35;;;1.88;;
67597;SDS011;62026;39.230;9.122;2023-04-24T07:36:25;9.63;;;2.28;;
67597;SDS011;62026;39.230;9.122;2023-04-24T07:38:53;10.10;;;2.50;;
67597;SDS011;62026;39.230;9.122;2023-04-24T07:41:20;10.20;;;2.50;;
67597;SDS011;62026;39.230;9.122;2023-04-24T07:43:46;8.25;;;1.92;;
67597;SDS011;62026;39.230;9.122;2023-04-24T07:46:12;5.63;;;2.35;;
67597;SDS011;62026;39.230;9.122;2023-04-24T07:48:38;9.45;;;1.98;;
67597;SDS011;62026;39.230;9.122;2023-04-24T07:51:04;8.45;;;2.00;;
67597;SDS011;62026;39.230;9.122;2023-04-24T07:53:30;8.82;;;2.20;;
67597;SDS011;62026;39.230;9.122;2023-04-24T07:55:56;8.02;;;2.05;;
67597;SDS011;62026;39.230;9.122;2023-04-24T07:58:22;9.13;;;2.70;;
67597;SDS011;62026;39.230;9.122;2023-04-24T08:00:49;9.48;;;2.30;;
67597;SDS011;62026;39.230;9.122;2023-04-24T08:03:15;9.00;;;2.13;;
67597;SDS011;62026;39.230;9.122;2023-04-24T08:05:44;7.35;;;2.13;;
67597;SDS011;62026;39.230;9.122;2023-04-24T08:08:10;11.35;;;2.22;;
67597;SDS011;62026;39.230;9.122;2023-04-24T08:10:36;6.20;;;2.08;;
67597;SDS011;62026;39.230;9.122;2023-04-24T08:13:02;8.07;;;2.03;;
67597;SDS011;62026;39.230;9.122;2023-04-24T08:15:28;8.60;;;2.17;;
67597;SDS011;62026;39.230;9.122;2023-04-24T08:17:56;8.65;;;2.55;;
67597;SDS011;62026;39.230;9.122;2023-04-24T08:20:22;9.73;;;2.30;;
67597;SDS011;62026;39.230;9.122;2023-04-24T08:22:49;8.18;;;1.90;;
67597;SDS011;62026;39.230;9.122;2023-04-24T08:25:15;7.43;;;1.98;;
67597;SDS011;62026;39.230;9.122;2023-04-24T08:27:41;8.15;;;1.70;;
67597;SDS011;62026;39.230;9.122;2023-04-24T08:30:07;5.93;;;2.08;;
67597;SDS011;62026;39.230;9.122;2023-04-24T08:32:34;9.30;;;2.30;;
67597;SDS011;62026;39.230;9.122;2023-04-24T08:35:01;11.00;;;2.50;;
67597;SDS011;62026;39.230;9.122;2023-04-24T08:37:27;7.78;;;2.10;;
67597;SDS011;62026;39.230;9.122;2023-04-24T08:39:54;14.10;;;2.05;;
67597;SDS011;62026;39.230;9.122;2023-04-24T08:42:20;10.93;;;2.22;;
67597;SDS011;62026;39.230;9.122;2023-04-24T08:44:48;8.27;;;2.30;;
67597;SDS011;62026;39.230;9.122;2023-04-24T08:47:15;7.78;;;2.00;;
67597;SDS011;62026;39.230;9.122;2023-04-24T08:49:41;7.00;;;2.10;;
67597;SDS011;62026;39.230;9.122;2023-04-24T08:52:10;11.95;;;2.58;;
67597;SDS011;62026;39.230;9.122;2023-04-24T08:54:38;14.40;;;2.20;;
67597;SDS011;62026;39.230;9.122;2023-04-24T08:57:08;5.60;;;1.98;;
67597;SDS011;62026;39.230;9.122;2023-04-24T08:59:36;10.80;;;2.40;;
67597;SDS011;62026;39.230;9.122;2023-04-24T09:02:04;12.25;;;2.03;;
67597;SDS011;62026;39.230;9.122;2023-04-24T09:04:31;7.63;;;2.33;;
67597;SDS011;62026;39.230;9.122;2023-04-24T09:06:59;6.35;;;1.88;;
67597;SDS011;62026;39.230;9.122;2023-04-24T09:09:26;11.68;;;2.05;;
67597;SDS011;62026;39.230;9.122;2023-04-24T09:11:56;8.18;;;2.05;;
67597;SDS011;62026;39.230;9.122;2023-04-24T09:14:23;10.63;;;2.40;;
67597;SDS011;62026;39.230;9.122;2023-04-24T09:16:49;8.23;;;2.28;;
67597;SDS011;62026;39.230;9.122;2023-04-24T09:19:16;9.50;;;2.00;;
67597;SDS011;62026;39.230;9.122;2023-04-24T09:21:45;6.45;;;1.88;;
67597;SDS011;62026;39.230;9.122;2023-04-24T09:24:16;7.53;;;2.13;;
67597;SDS011;62026;39.230;9.122;2023-04-24T09:26:45;7.40;;;1.65;;
67597;SDS011;62026;39.230;9.122;2023-04-24T09:29:15;7.97;;;2.08;;
67597;SDS011;62026;39.230;9.122;2023-04-24T09:31:42;5.28;;;2.15;;
67597;SDS011;62026;39.230;9.122;2023-04-24T09:34:09;4.25;;;1.75;;
67597;SDS011;62026;39.230;9.122;2023-04-24T09:36:36;7.22;;;1.55;;
67597;SDS011;62026;39.230;9.122;2023-04-24T09:39:08;6.40;;;1.27;;
67597;SDS011;62026;39.230;9.122;2023-04-24T09:41:47;2.63;;;0.90;;
67597;SDS011;62026;39.230;9.122;2023-04-24T09:44:19;6.17;;;1.40;;
67597;SDS011;62026;39.230;9.122;2023-04-24T09:46:51;3.13;;;0.95;;
67597;SDS011;62026;39.230;9.122;2023-04-24T09:49:28;4.38;;;0.90;;
67597;SDS011;62026;39.230;9.122;2023-04-24T09:52:05;13.15;;;1.27;;
67597;SDS011;62026;39.230;9.122;2023-04-24T09:54:33;6.05;;;1.10;;
67597;SDS011;62026;39.230;9.122;2023-04-24T09:57:01;5.93;;;1.50;;
67597;SDS011;62026;39.230;9.122;2023-04-24T09:59:28;3.63;;;1.33;;
67597;SDS011;62026;39.230;9.122;2023-04-24T10:01:55;3.92;;;1.08;;
67597;SDS011;62026;39.230;9.122;2023-04-24T10:04:26;7.10;;;1.50;;
67597;SDS011;62026;39.230;9.122;2023-04-24T10:06:54;2.83;;;1.23;;
67597;SDS011;62026;39.230;9.122;2023-04-24T10:09:23;17.23;;;1.77;;
67597;SDS011;62026;39.230;9.122;2023-04-24T10:11:52;6.78;;;1.40;;
67597;SDS011;62026;39.230;9.122;2023-04-24T10:14:23;5.30;;;1.20;;
67597;SDS011;62026;39.230;9.122;2023-04-24T10:16:54;3.15;;;1.08;;
67597;SDS011;62026;39.230;9.122;2023-04-24T10:19:22;5.05;;;1.10;;
67597;SDS011;62026;39.230;9.122;2023-04-24T10:21:51;4.13;;;1.10;;
67597;SDS011;62026;39.230;9.122;2023-04-24T10:24:19;3.80;;;1.08;;
67597;SDS011;62026;39.230;9.122;2023-04-24T10:26:46;3.17;;;1.00;;
67597;SDS011;62026;39.230;9.122;2023-04-24T10:29:17;4.57;;;1.10;;
67597;SDS011;62026;39.230;9.122;2023-04-24T10:31:44;5.28;;;1.13;;
67597;SDS011;62026;39.230;9.122;2023-04-24T10:34:11;4.57;;;1.30;;
67597;SDS011;62026;39.230;9.122;2023-04-24T10:36:41;3.90;;;1.13;;
67597;SDS011;62026;39.230;9.122;2023-04-24T10:39:15;5.75;;;1.00;;
67597;SDS011;62026;39.230;9.122;2023-04-24T10:41:43;5.88;;;1.20;;
67597;SDS011;62026;39.230;9.122;2023-04-24T10:44:12;4.35;;;0.80;;
67597;SDS011;62026;39.230;9.122;2023-04-24T10:46:42;3.85;;;1.38;;
67597;SDS011;62026;39.230;9.122;2023-04-24T10:49:11;2.47;;;0.80;;
67597;SDS011;62026;39.230;9.122;2023-04-24T10:51:53;2.67;;;0.80;;
67597;SDS011;62026;39.230;9.122;2023-04-24T10:54:26;8.82;;;1.00;;
67597;SDS011;62026;39.230;9.122;2023-04-24T10:59:44;5.95;;;1.08;;
67597;SDS011;62026;39.230;9.122;2023-04-24T11:02:15;6.43;;;0.93;;
67597;SDS011;62026;39.230;9.122;2023-04-24T11:04:43;6.15;;;0.90;;
67597;SDS011;62026;39.230;9.122;2023-04-24T11:07:12;3.40;;;0.88;;
67597;SDS011;62026;39.230;9.122;2023-04-24T11:09:38;4.07;;;1.38;;
67597;SDS011;62026;39.230;9.122;2023-04-24T11:12:11;6.47;;;0.90;;
67597;SDS011;62026;39.230;9.122;2023-04-24T11:17:35;4.28;;;0.80;;
67597;SDS011;62026;39.230;9.122;2023-04-24T11:20:05;3.13;;;0.88;;
67597;SDS011;62026;39.230;9.122;2023-04-24T11:22:37;1.52;;;0.82;;
67597;SDS011;62026;39.230;9.122;2023-04-24T11:25:07;5.70;;;0.80;;
67597;SDS011;62026;39.230;9.122;2023-04-24T11:27:43;2.50;;;0.77;;
67597;SDS011;62026;39.230;9.122;2023-04-24T11:30:11;6.05;;;1.10;;
67597;SDS011;62026;39.230;9.122;2023-04-24T11:32:42;5.13;;;0.98;;
67597;SDS011;62026;39.230;9.122;2023-04-24T11:35:13;3.25;;;0.90;;
67597;SDS011;62026;39.230;9.122;2023-04-24T11:37:45;5.50;;;1.30;;
67597;SDS011;62026;39.230;9.122;2023-04-24T11:40:16;2.13;;;1.00;;
67597;SDS011;62026;39.230;9.122;2023-04-24T11:42:49;5.10;;;1.40;;
67597;SDS011;62026;39.230;9.122;2023-04-24T11:45:18;8.63;;;1.60;;
67597;SDS011;62026;39.230;9.122;2023-04-24T11:47:49;7.30;;;1.38;;
67597;SDS011;62026;39.230;9.122;2023-04-24T11:50:17;5.40;;;1.17;;
67597;SDS011;62026;39.230;9.122;2023-04-24T11:52:48;4.97;;;1.00;;
67597;SDS011;62026;39.230;9.122;2023-04-24T11:57:42;5.60;;;1.13;;
67597;SDS011;62026;39.230;9.122;2023-04-24T12:02:44;3.67;;;1.55;;
67597;SDS011;62026;39.230;9.122;2023-04-24T12:05:19;1.77;;;0.80;;
67597;SDS011;62026;39.230;9.122;2023-04-24T12:07:46;2.08;;;1.10;;
67597;SDS011;62026;39.230;9.122;2023-04-24T12:10:12;3.33;;;1.20;;
67597;SDS011;62026;39.230;9.122;2023-04-24T12:12:38;6.97;;;1.08;;
67597;SDS011;62026;39.230;9.122;2023-04-24T12:15:07;3.58;;;1.10;;
67597;SDS011;62026;39.230;9.122;2023-04-24T12:17:34;2.95;;;0.90;;
67597;SDS011;62026;39.230;9.122;2023-04-24T12:20:04;4.95;;;1.10;;
67597;SDS011;62026;39.230;9.122;2023-04-24T12:22:46;2.47;;;1.02;;
67597;SDS011;62026;39.230;9.122;2023-04-24T12:25:19;5.07;;;0.80;;
67597;SDS011;62026;39.230;9.122;2023-04-24T12:27:52;3.55;;;0.80;;
67597;SDS011;62026;39.230;9.122;2023-04-24T12:30:20;6.93;;;1.75;;
67597;SDS011;62026;39.230;9.122;2023-04-24T12:32:53;6.07;;;0.90;;
67597;SDS011;62026;39.230;9.122;2023-04-24T12:35:21;2.85;;;0.85;;
67597;SDS011;62026;39.230;9.122;2023-04-24T12:37:48;3.45;;;1.00;;
67597;SDS011;62026;39.230;9.122;2023-04-24T12:40:16;2.85;;;1.00;;
67597;SDS011;62026;39.230;9.122;2023-04-24T12:45:15;6.38;;;2.53;;
67597;SDS011;62026;39.230;9.122;2023-04-24T12:47:43;9.32;;;3.75;;
67597;SDS011;62026;39.230;9.122;2023-04-24T12:50:14;8.50;;;3.92;;
67597;SDS011;62026;39.230;9.122;2023-04-24T12:52:41;7.90;;;3.90;;
67597;SDS011;62026;39.230;9.122;2023-04-24T12:55:08;3.30;;;1.20;;
67597;SDS011;62026;39.230;9.122;2023-04-24T12:57:36;9.25;;;2.15;;
67597;SDS011;62026;39.230;9.122;2023-04-24T13:00:05;8.02;;;1.80;;
67597;SDS011;62026;39.230;9.122;2023-04-24T13:02:33;9.57;;;5.07;;
67597;SDS011;62026;39.230;9.122;2023-04-24T13:05:00;6.20;;;3.90;;
67597;SDS011;62026;39.230;9.122;2023-04-24T13:07:27;2.65;;;1.48;;
67597;SDS011;62026;39.230;9.122;2023-04-24T13:09:54;4.70;;;1.00;;
67597;SDS011;62026;39.230;9.122;2023-04-24T13:12:22;2.88;;;0.90;;
67597;SDS011;62026;39.230;9.122;2023-04-24T13:14:49;7.53;;;0.70;;
67597;SDS011;62026;39.230;9.122;2023-04-24T13:17:15;4.50;;;0.80;;
67597;SDS011;62026;39.230;9.122;2023-04-24T13:19:41;3.08;;;0.90;;
67597;SDS011;62026;39.230;9.122;2023-04-24T13:22:10;3.47;;;1.08;;
67597;SDS011;62026;39.230;9.122;2023-04-24T13:24:38;3.50;;;0.70;;
67597;SDS011;62026;39.230;9.122;2023-04-24T13:27:06;2.90;;;1.00;;
67597;SDS011;62026;39.230;9.122;2023-04-24T13:29:32;4.22;;;1.00;;
67597;SDS011;62026;39.230;9.122;2023-04-24T13:31:58;4.40;;;0.90;;
67597;SDS011;62026;39.230;9.122;2023-04-24T13:34:25;3.00;;;1.00;;
67597;SDS011;62026;39.230;9.122;2023-04-24T13:36:52;5.07;;;1.13;;
67597;SDS011;62026;39.230;9.122;2023-04-24T13:39:21;5.95;;;1.00;;
67597;SDS011;62026;39.230;9.122;2023-04-24T13:41:48;4.50;;;0.90;;
67597;SDS011;62026;39.230;9.122;2023-04-24T13:44:15;6.05;;;0.70;;
67597;SDS011;62026;39.230;9.122;2023-04-24T13:46:43;4.20;;;0.70;;
67597;SDS011;62026;39.230;9.122;2023-04-24T13:49:14;5.28;;;0.80;;
67597;SDS011;62026;39.230;9.122;2023-04-24T13:51:41;4.47;;;0.90;;
67597;SDS011;62026;39.230;9.122;2023-04-24T13:54:08;3.20;;;1.00;;
67597;SDS011;62026;39.230;9.122;2023-04-24T13:56:35;9.13;;;1.20;;
67597;SDS011;62026;39.230;9.122;2023-04-24T13:59:01;3.40;;;1.15;;
67597;SDS011;62026;39.230;9.122;2023-04-24T14:01:27;7.88;;;1.00;;
67597;SDS011;62026;39.230;9.122;2023-04-24T14:03:53;6.25;;;1.10;;
67597;SDS011;62026;39.230;9.122;2023-04-24T14:06:21;6.43;;;1.05;;
67597;SDS011;62026;39.230;9.122;2023-04-24T14:08:48;3.40;;;0.95;;
67597;SDS011;62026;39.230;9.122;2023-04-24T14:11:15;3.30;;;0.90;;
67597;SDS011;62026;39.230;9.122;2023-04-24T14:13:42;3.67;;;0.77;;
67597;SDS011;62026;39.230;9.122;2023-04-24T14:16:10;5.13;;;0.80;;
67597;SDS011;62026;39.230;9.122;2023-04-24T14:18:36;2.55;;;0.80;;
67597;SDS011;62026;39.230;9.122;2023-04-24T14:21:03;1.98;;;0.70;;
67597;SDS011;62026;39.230;9.122;2023-04-24T14:23:30;3.60;;;0.93;;
67597;SDS011;62026;39.230;9.122;2023-04-24T14:25:57;7.53;;;1.10;;
67597;SDS011;62026;39.230;9.122;2023-04-24T14:28:24;6.80;;;0.80;;
67597;SDS011;62026;39.230;9.122;2023-04-24T14:30:51;5.88;;;1.10;;
67597;SDS011;62026;39.230;9.122;2023-04-24T14:33:18;6.50;;;0.75;;
67597;SDS011;62026;39.230;9.122;2023-04-24T14:35:44;2.17;;;0.98;;
67597;SDS011;62026;39.230;9.122;2023-04-24T14:38:11;4.20;;;0.90;;
67597;SDS011;62026;39.230;9.122;2023-04-24T14:40:37;4.05;;;0.82;;
67597;SDS011;62026;39.230;9.122;2023-04-24T14:43:03;2.58;;;0.90;;
67597;SDS011;62026;39.230;9.122;2023-04-24T14:45:29;6.07;;;0.90;;
67597;SDS011;62026;39.230;9.122;2023-04-24T14:47:55;5.47;;;0.98;;
67597;SDS011;62026;39.230;9.122;2023-04-24T14:50:22;2.78;;;0.85;;
67597;SDS011;62026;39.230;9.122;2023-04-24T14:52:53;8.77;;;0.88;;
67597;SDS011;62026;39.230;9.122;2023-04-24T14:55:22;4.15;;;1.00;;
67597;SDS011;62026;39.230;9.122;2023-04-24T14:57:50;3.83;;;0.63;;
67597;SDS011;62026;39.230;9.122;2023-04-24T15:00:16;5.15;;;0.60;;